KBIX/BIX METAR and TAF weather

Enter ICAO airport designator
Station Type Date Time Source
KBIX METAR 2022/06/27 08:56 UTC NOAA

KBIX 270856Z AUTO 00000KT 10SM CLR 25/24 A2998 RMK AO2 SLP155 T02460235 57023


Station Type Date Time Source
KBIX Decoded METAR 2022/06/27 08:56 UTC NOAA

Keesler Air Force Base / Biloxi, MS, United States (KBIX) 30-25N 088-55W
Jun 27, 2022 - 04:56 AM EDT / 2022.06.27 0856 UTC
Wind: Calm:0
Visibility: 10 mile(s):0
Sky conditions: clear
Temperature: 76.3 F (24.6 C)
Dew Point: 74.3 F (23.5 C)
Relative Humidity: 93%
Pressure (altimeter): 29.98 in. Hg (1015 hPa)
Pressure tendency: 0.07 inches (2.3 hPa) lower than three hours ago
ob: KBIX 270856Z AUTO 00000KT 10SM CLR 25/24 A2998 RMK AO2 SLP155 T02460235 57023
cycle: 9

Station Type Date Time Source
KBIX TAF 2022/06/25 02:08 UTC NOAA

TAF KBIX 250200Z 2502/2608 VRB06KT 9999 FEW050 SCT200 QNH2988INS
BECMG 2517/2518 24009KT 9999 VCTS FEW030CB SCT100 QNH2993INS
TEMPO 2518/2521 VRB12G18KT 4800 -TSRA BKN020CB BKN080
BECMG 2520/2521 20009KT 9999 NSW BKN050 BKN180 QNH2992INS TX37/2519Z TN26/2511Z LAST NO
AMDS AFT 2504 NEXT 2710

Example: see airport list